Time;durP1;ratioP1;P1;durP2;ratioP2;P2;SDS_P1;SDS_P2;PMS_P1;PMS_P2;Temp;Humidity;BMP_temperature;BMP_pressure;BME280_temperature;BME280_humidity;BME280_pressure;Samples;Min_cycle;Max_cycle;Signal;HPM_P1;HPM_P2
2022/06/17 00:00:54;;;;;;;5.75;1.90;;;;;;;14.04;46.79;101615.28;5138162;27;20449;-70
2022/06/17 00:03:22;;;;;;;4.97;2.25;;;;;;;14.05;47.08;101620.53;5137602;27;20126;-70
2022/06/17 00:05:50;;;;;;;7.75;2.85;;;;;;;14.03;47.12;101625.25;5137223;27;20054;-70
2022/06/17 00:08:20;;;;;;;8.48;2.45;;;;;;;14.03;47.11;101625.25;5136510;27;20051;-70
2022/06/17 00:10:47;;;;;;;5.63;2.17;;;;;;;13.98;47.16;101624.88;5136794;27;20094;-70
2022/06/17 00:13:16;;;;;;;5.30;1.83;;;;;;;14.00;47.38;101627.41;5137014;27;20094;-70
2022/06/17 00:15:45;;;;;;;10.45;2.33;;;;;;;13.93;47.42;101627.19;5136868;27;20550;-70
2022/06/17 00:18:13;;;;;;;3.88;1.90;;;;;;;13.92;47.62;101633.63;5118704;27;20397;-70
2022/06/17 00:20:40;;;;;;;5.85;2.05;;;;;;;13.92;47.77;101635.47;5136938;27;20133;-70
2022/06/17 00:23:16;;;;;;;8.30;2.65;;;;;;;13.86;47.89;101634.25;5136501;27;20138;-70
2022/06/17 00:25:47;;;;;;;5.13;2.10;;;;;;;13.85;48.07;101637.13;5136583;27;20142;-70
2022/06/17 00:28:17;;;;;;;3.83;2.13;;;;;;;13.71;48.40;101642.06;5136671;27;20070;-70
2022/06/17 00:30:46;;;;;;;5.25;2.15;;;;;;;13.66;48.67;101633.56;5136854;27;20461;-70
2022/06/17 00:33:15;;;;;;;5.45;2.22;;;;;;;13.69;48.64;101638.66;5136532;27;20104;-70
2022/06/17 00:35:44;;;;;;;8.82;2.83;;;;;;;13.72;48.61;101638.34;5137329;27;20089;-70
2022/06/17 00:38:19;;;;;;;8.30;2.10;;;;;;;13.67;49.04;101654.16;5136479;27;20469;-70
2022/06/17 00:40:46;;;;;;;5.07;2.13;;;;;;;13.66;49.01;101655.16;5136875;27;20566;-70
2022/06/17 00:43:25;;;;;;;5.68;2.45;;;;;;;13.68;49.04;101655.84;5136634;27;20560;-70
2022/06/17 00:46:05;;;;;;;6.85;2.35;;;;;;;13.65;49.05;101658.84;5136004;27;20083;-70
2022/06/17 00:48:39;;;;;;;5.43;1.95;;;;;;;13.64;49.22;101654.47;5136270;27;20043;-70
2022/06/17 00:51:13;;;;;;;3.13;1.73;;;;;;;13.61;49.15;101662.88;5136593;27;20051;-70
2022/06/17 00:53:50;;;;;;;4.78;1.85;;;;;;;13.59;49.05;101662.19;5136189;27;20047;-70
2022/06/17 00:56:24;;;;;;;6.18;1.70;;;;;;;13.57;49.22;101661.50;5135726;27;20140;-70
2022/06/17 00:58:53;;;;;;;5.07;2.05;;;;;;;13.52;49.40;101658.41;5136626;27;20079;-70
2022/06/17 01:01:23;;;;;;;3.80;1.48;;;;;;;13.53;49.24;101665.53;5136009;27;20486;-70
2022/06/17 01:03:58;;;;;;;4.00;1.58;;;;;;;13.45;49.52;101657.34;5135614;27;20047;-70
2022/06/17 01:07:11;;;;;;;4.72;1.65;;;;;;;13.48;49.42;101667.81;5135956;27;20135;-70
2022/06/17 01:09:57;;;;;;;3.20;1.13;;;;;;;13.43;49.64;101664.78;5135810;27;20129;-70
2022/06/17 01:12:28;;;;;;;6.28;1.38;;;;;;;13.38;49.67;101667.91;5135765;27;20076;-70
2022/06/17 01:14:56;;;;;;;4.13;1.40;;;;;;;13.40;49.61;101665.91;5135637;27;20047;-70
2022/06/17 01:17:22;;;;;;;2.28;1.00;;;;;;;13.38;49.67;101667.91;5135698;27;20475;-69
2022/06/17 01:19:55;;;;;;;4.13;1.27;;;;;;;13.26;50.03;101664.63;5134542;27;20135;-68
2022/06/17 01:22:26;;;;;;;3.60;1.02;;;;;;;13.22;49.74;101667.78;5135585;27;20061;-69
2022/06/17 01:24:56;;;;;;;4.55;1.10;;;;;;;13.20;49.83;101669.78;5135274;27;20059;-69
2022/06/17 01:27:31;;;;;;;3.47;1.30;;;;;;;13.21;49.82;101666.91;5135124;27;20138;-68
2022/06/17 01:29:58;;;;;;;3.05;1.08;;;;;;;13.17;50.11;101657.44;5135209;27;20078;-68
2022/06/17 01:32:32;;;;;;;4.50;1.30;;;;;;;13.10;50.25;101670.69;5135479;27;20559;-68
2022/06/17 01:35:00;;;;;;;4.78;1.23;;;;;;;13.10;50.04;101668.00;5135434;27;20129;-68
2022/06/17 01:37:28;;;;;;;3.10;1.10;;;;;;;13.06;50.27;101674.69;5135387;27;20089;-69
2022/06/17 01:39:56;;;;;;;5.35;1.20;;;;;;;13.04;50.36;101676.72;5134844;27;20082;-68
2022/06/17 01:42:24;;;;;;;4.45;1.23;;;;;;;12.98;50.56;101676.47;5134872;27;20078;-69
2022/06/17 01:44:53;;;;;;;3.10;1.25;;;;;;;12.90;51.12;101679.06;5135229;27;20083;-69
2022/06/17 01:47:25;;;;;;;3.75;1.35;;;;;;;12.82;51.34;101677.13;5134847;27;20101;-70
2022/06/17 01:49:57;;;;;;;2.05;1.13;;;;;;;12.72;51.83;101687.09;5135030;27;20066;-70
2022/06/17 01:52:26;;;;;;;;;;;;;;;12.72;51.85;101682.56;5117244;27;20078;-69
2022/06/17 01:54:58;;;;;;;3.05;1.48;;;;;;;12.70;51.95;101689.94;5134987;27;19919;-70
2022/06/17 01:57:31;;;;;;;;;;;;;;;12.64;51.48;101683.31;5117175;27;20100;-69
2022/06/17 02:00:02;;;;;;;5.25;1.20;;;;;;;12.60;51.51;101675.69;5134965;27;19919;-70
2022/06/17 02:02:30;;;;;;;3.35;1.13;;;;;;;12.55;51.56;101675.28;5134792;27;20081;-70
2022/06/17 02:05:03;;;;;;;3.75;1.15;;;;;;;12.53;51.64;101675.44;5117451;27;20055;-69
2022/06/17 02:07:44;;;;;;;9.40;1.15;;;;;;;12.48;51.77;101684.94;5134528;27;20079;-69
2022/06/17 02:10:11;;;;;;;1.45;0.90;;;;;;;12.47;51.65;101683.25;5134432;27;20142;-69
2022/06/17 02:12:39;;;;;;;4.38;1.30;;;;;;;12.41;52.08;101688.22;5134421;28;20047;-70
2022/06/17 02:15:06;;;;;;;2.58;1.00;;;;;;;12.34;52.01;101689.81;5134698;27;20409;-69
2022/06/17 02:17:39;;;;;;;2.22;1.10;;;;;;;12.26;52.45;101686.19;5134778;27;20388;-69
2022/06/17 02:20:07;;;;;;;3.83;0.95;;;;;;;12.22;52.36;101685.63;5134231;28;20073;-69
2022/06/17 02:22:35;;;;;;;4.20;1.00;;;;;;;12.17;52.72;101682.53;5134643;28;20051;-69
2022/06/17 02:25:09;;;;;;;3.90;0.98;;;;;;;12.21;52.62;101694.72;5133995;28;20130;-69
2022/06/17 02:27:36;;;;;;;2.78;1.08;;;;;;;12.17;52.80;101688.78;5134624;28;20071;-69
2022/06/17 02:30:05;;;;;;;3.35;1.08;;;;;;;12.14;52.83;101690.88;5134247;28;20079;-69
2022/06/17 02:32:33;;;;;;;3.50;1.00;;;;;;;12.07;53.04;101687.09;5138339;27;20046;-73
2022/06/17 02:35:18;;;;;;;6.45;1.10;;;;;;;12.10;52.95;101679.56;5138846;27;20082;-69
2022/06/17 02:37:45;;;;;;;7.38;1.05;;;;;;;12.04;53.10;101682.03;5139550;27;20072;-69
2022/06/17 02:40:30;;;;;;;3.83;1.10;;;;;;;12.02;53.37;101698.31;5138596;27;20043;-69
2022/06/17 02:43:10;;;;;;;4.70;0.93;;;;;;;11.99;53.41;101695.91;5138437;27;20043;-69
2022/06/17 02:45:42;;;;;;;4.72;0.98;;;;;;;12.03;53.75;101693.75;5138579;27;20094;-69
2022/06/17 02:48:24;;;;;;;3.55;1.05;;;;;;;12.05;53.61;101686.41;5138283;27;20099;-69
2022/06/17 02:50:53;;;;;;;6.28;1.10;;;;;;;12.00;53.95;101689.50;5138524;27;20058;-69
2022/06/17 02:53:31;;;;;;;1.88;1.00;;;;;;;12.01;53.77;101685.00;5138177;27;20082;-69
2022/06/17 02:55:59;;;;;;;2.00;0.93;;;;;;;12.02;53.90;101679.47;5138390;27;20091;-69
2022/06/17 02:58:38;;;;;;;5.28;1.15;;;;;;;12.04;53.91;101685.56;5138426;27;20157;-69
2022/06/17 03:01:15;;;;;;;4.72;1.25;;;;;;;11.97;54.05;101671.00;5138399;27;20498;-69
2022/06/17 03:03:44;;;;;;;3.22;1.20;;;;;;;11.96;53.85;101673.81;5139204;27;20134;-69
2022/06/17 03:06:18;;;;;;;1.27;0.95;;;;;;;11.95;54.38;101672.16;5138920;27;20058;-69
2022/06/17 03:08:48;;;;;;;4.55;1.20;;;;;;;11.95;54.31;101670.28;5138384;27;20138;-69
2022/06/17 03:11:16;;;;;;;6.97;1.50;;;;;;;12.02;54.29;101674.09;5137947;27;20043;-69
2022/06/17 03:13:54;;;;;;;2.83;1.10;;;;;;;12.04;54.11;101682.03;5138294;27;20100;-69
2022/06/17 03:16:22;;;;;;;1.95;1.33;;;;;;;12.08;54.07;101678.88;5138408;27;20401;-69
2022/06/17 03:18:50;;;;;;;4.80;1.45;;;;;;;12.09;53.96;101668.97;5138345;27;20546;-70
2022/06/17 03:21:23;;;;;;;2.50;1.50;;;;;;;12.08;53.97;101670.81;5138127;27;20140;-69
2022/06/17 03:24:01;;;;;;;2.83;1.40;;;;;;;12.14;54.17;101682.81;5137809;27;20058;-70
2022/06/17 03:26:37;;;;;;;4.38;1.15;;;;;;;12.22;53.81;101680.25;5137765;27;20092;-69
2022/06/17 03:29:08;;;;;;;3.15;1.30;;;;;;;12.21;53.99;101678.56;5137366;27;20062;-69
2022/06/17 03:31:41;;;;;;;4.03;1.30;;;;;;;12.20;53.97;101674.16;5137542;27;20093;-69
2022/06/17 03:34:14;;;;;;;8.35;1.67;;;;;;;12.26;53.84;101676.28;5137699;27;20475;-69
2022/06/17 03:36:51;;;;;;;4.63;1.50;;;;;;;12.35;53.75;101685.31;5137614;27;20043;-70
2022/06/17 03:39:24;;;;;;;5.88;1.50;;;;;;;12.35;53.64;101679.94;5137644;27;20074;-69
2022/06/17 03:41:56;;;;;;;2.65;1.00;;;;;;;12.34;53.67;101684.44;5137092;27;20086;-69
2022/06/17 03:44:32;;;;;;;9.25;1.38;;;;;;;12.40;53.78;101694.63;5137244;27;20086;-69
2022/06/17 03:47:08;;;;;;;5.47;1.65;;;;;;;12.43;53.51;101688.09;5137447;27;20047;-69
2022/06/17 03:49:41;;;;;;;5.00;1.52;;;;;;;12.40;53.70;101694.63;5137460;27;20126;-69
2022/06/17 03:52:26;;;;;;;4.05;1.20;;;;;;;12.43;53.60;101690.78;5137456;27;20050;-69
2022/06/17 03:54:53;;;;;;;5.55;1.58;;;;;;;12.41;53.76;101703.53;5137396;27;20122;-69
2022/06/17 03:57:20;;;;;;;6.60;1.50;;;;;;;12.31;54.04;101700.03;5137434;27;20476;-70
2022/06/17 03:59:49;;;;;;;5.72;1.50;;;;;;;12.48;53.84;101706.47;5137207;27;20082;-70
2022/06/17 04:02:18;;;;;;;6.32;1.40;;;;;;;12.43;54.13;101700.72;5136855;27;20047;-70
2022/06/17 04:04:50;;;;;;;9.98;1.40;;;;;;;12.49;53.95;101708.19;5137104;27;20078;-70
2022/06/17 04:07:17;;;;;;;2.63;1.20;;;;;;;12.43;53.88;101712.31;5137058;27;20051;-69
2022/06/17 04:09:45;;;;;;;4.90;1.50;;;;;;;12.41;54.26;101715.13;5137093;27;20126;-70
2022/06/17 04:12:12;;;;;;;3.65;1.83;;;;;;;12.51;53.92;101720.50;5137405;27;20130;-68
2022/06/17 04:15:05;;;;;;;6.60;1.58;;;;;;;12.44;54.24;101721.22;5136838;27;20051;-70
2022/06/17 04:17:44;;;;;;;3.72;1.77;;;;;;;12.47;54.38;101723.63;5136997;27;20121;-69
2022/06/17 04:20:26;;;;;;;6.22;2.33;;;;;;;12.45;54.48;101728.31;5136604;27;20043;-69
2022/06/17 04:22:59;;;;;;;8.30;3.42;;;;;;;12.51;54.42;101733.09;5136784;27;20142;-69
2022/06/17 04:25:36;;;;;;;6.00;2.17;;;;;;;12.54;54.46;101730.13;5136286;27;20473;-69
2022/06/17 04:28:09;;;;;;;5.88;2.00;;;;;;;12.56;54.56;101730.84;5137458;27;20090;-69
2022/06/17 04:30:42;;;;;;;3.55;1.90;;;;;;;12.54;54.86;101733.66;5136592;27;20047;-69
2022/06/17 04:33:50;;;;;;;2.53;1.60;;;;;;;12.58;55.12;101740.44;5136386;27;20141;-69
2022/06/17 04:36:25;;;;;;;5.50;2.17;;;;;;;12.56;55.20;101737.06;5102202;27;20127;-69
2022/06/17 04:39:05;;;;;;;5.20;2.00;;;;;;;12.50;55.63;101732.25;5136965;27;20126;-69
2022/06/17 04:41:36;;;;;;;5.18;2.10;;;;;;;12.45;55.60;101734.53;5136057;27;20078;-69
2022/06/17 04:44:05;;;;;;;6.40;2.40;;;;;;;12.46;55.71;101735.41;5136329;27;20534;-69
2022/06/17 04:46:56;;;;;;;8.75;2.33;;;;;;;12.44;55.98;101745.47;5135822;27;20072;-69
2022/06/17 04:49:26;;;;;;;7.85;2.63;;;;;;;12.48;55.78;101736.09;5136228;27;20126;-69
2022/06/17 04:51:58;;;;;;;6.75;2.45;;;;;;;12.48;56.14;101739.63;5136188;27;20054;-69
2022/06/17 04:54:27;;;;;;;9.57;2.90;;;;;;;12.54;55.96;101743.56;5134948;27;20047;-69
2022/06/17 04:56:58;;;;;;;10.85;2.90;;;;;;;12.60;55.84;101751.91;5135672;27;20210;-69
2022/06/17 04:59:31;;;;;;;;;;;;;;;12.61;55.91;101750.06;5136840;27;20079;-69
2022/06/17 05:01:59;;;;;;;8.43;2.55;;;;;;;12.60;55.82;101743.00;5135998;27;19941;-69
2022/06/17 05:04:26;;;;;;;4.90;2.22;;;;;;;12.68;55.75;101744.94;5135996;27;20130;-69
2022/06/17 05:06:53;;;;;;;7.38;2.60;;;;;;;12.70;55.85;101748.34;5135942;27;20051;-69
2022/06/17 05:09:45;;;;;;;12.02;3.47;;;;;;;12.69;56.14;101741.22;5136386;27;20134;-69
2022/06/17 05:12:20;;;;;;;10.32;3.30;;;;;;;12.77;56.05;101734.16;5135636;27;20142;-70
2022/06/17 05:14:52;;;;;;;11.00;2.70;;;;;;;12.83;55.92;101732.69;5136335;27;20510;-69
2022/06/17 05:17:20;;;;;;;9.15;2.97;;;;;;;12.82;56.04;101734.53;5135387;27;20138;-69
2022/06/17 05:19:48;;;;;;;10.93;2.42;;;;;;;12.87;56.05;101740.34;5136362;27;20463;-69
2022/06/17 05:22:37;;;;;;;6.40;4.20;;;;;;;12.92;56.21;101737.19;5135742;27;20500;-70
2022/06/17 05:25:10;;;;;;;9.32;3.33;;;;;;;12.99;55.97;101742.81;5135151;27;20133;-69
2022/06/17 05:27:37;;;;;;;6.93;2.47;;;;;;;13.03;55.95;101747.72;5135271;27;20086;-70
2022/06/17 05:30:04;;;;;;;7.30;3.00;;;;;;;12.99;56.13;101737.41;5117182;27;20134;-69
2022/06/17 05:32:31;;;;;;;5.68;2.70;;;;;;;13.03;55.98;101738.81;5135518;27;20406;-69
2022/06/17 05:34:57;;;;;;;14.73;3.20;;;;;;;13.08;55.90;101750.00;5135155;27;20078;-69
2022/06/17 05:37:24;;;;;;;6.93;2.72;;;;;;;13.10;55.91;101751.50;5135212;27;20105;-69
2022/06/17 05:39:50;;;;;;;14.98;3.17;;;;;;;13.12;55.70;101746.00;5135267;27;20132;-69
2022/06/17 05:42:17;;;;;;;8.48;2.58;;;;;;;13.18;55.71;101747.22;5136467;27;20490;-70
2022/06/17 05:44:46;;;;;;;13.18;3.55;;;;;;;13.18;55.76;101747.22;5136854;27;20066;-69
2022/06/17 05:47:13;;;;;;;7.43;2.58;;;;;;;13.19;55.92;101747.06;5136088;27;20139;-70
2022/06/17 05:49:40;;;;;;;10.02;2.70;;;;;;;13.33;55.67;101757.31;5135963;27;20039;-70
2022/06/17 05:52:10;;;;;;;18.30;3.08;;;;;;;13.32;55.64;101741.31;5136700;27;20133;-70
2022/06/17 05:54:37;;;;;;;9.30;2.78;;;;;;;13.39;55.37;101745.09;5135508;27;20085;-71
2022/06/17 05:57:04;;;;;;;12.13;3.13;;;;;;;13.40;55.41;101737.84;5136768;27;20077;-70
2022/06/17 05:59:31;;;;;;;9.75;3.33;;;;;;;13.43;55.35;101732.16;5135056;27;20051;-69
2022/06/17 06:01:58;;;;;;;9.77;3.13;;;;;;;13.42;55.65;101738.53;5135280;27;20057;-69
2022/06/17 06:04:26;;;;;;;13.02;3.35;;;;;;;13.53;55.32;101746.41;5135695;27;20123;-69
2022/06/17 06:06:55;;;;;;;12.02;3.13;;;;;;;13.57;55.08;101745.09;5134429;27;20050;-70
2022/06/17 06:09:22;;;;;;;10.38;3.30;;;;;;;13.65;54.97;101747.84;5134479;27;20076;-69
2022/06/17 06:11:48;;;;;;;10.30;3.22;;;;;;;13.58;55.04;101747.63;5135867;27;20134;-69
2022/06/17 06:14:15;;;;;;;10.95;3.05;;;;;;;13.64;54.92;101748.84;5135034;27;20532;-70
2022/06/17 06:16:41;;;;;;;8.40;2.58;;;;;;;13.86;54.14;101752.09;5134733;27;20130;-70
2022/06/17 06:19:08;;;;;;;8.82;4.28;;;;;;;13.92;53.88;101759.56;5134738;27;20051;-69
2022/06/17 06:21:34;;;;;;;17.38;9.27;;;;;;;13.94;53.85;101761.09;5134610;28;20146;-70
2022/06/17 06:24:01;;;;;;;7.45;3.10;;;;;;;14.11;53.25;101762.03;5134772;28;20134;-70
2022/06/17 06:26:29;;;;;;;9.57;2.60;;;;;;;14.11;53.28;101764.75;5134424;28;20050;-69
2022/06/17 06:28:56;;;;;;;9.20;2.60;;;;;;;14.01;53.77;101767.56;5135211;28;20069;-69
2022/06/17 06:31:34;;;;;;;7.95;3.35;;;;;;;14.29;52.90;101770.97;5134680;28;20039;-69
2022/06/17 06:34:01;;;;;;;10.32;2.92;;;;;;;14.40;52.94;101771.69;5135093;28;20051;-69
2022/06/17 06:36:28;;;;;;;10.05;2.90;;;;;;;14.48;52.02;101774.44;5135300;28;20083;-70
2022/06/17 06:38:55;;;;;;;8.52;2.65;;;;;;;14.73;51.39;101778.97;5134560;28;20130;-69
2022/06/17 06:41:22;;;;;;;7.55;2.70;;;;;;;14.83;51.08;101776.16;5134538;28;20047;-69
2022/06/17 06:43:49;;;;;;;8.32;2.50;;;;;;;14.99;50.89;101787.03;5134390;28;20083;-69
2022/06/17 06:46:19;;;;;;;6.28;2.50;;;;;;;15.12;50.05;101778.47;5134454;28;20360;-69
2022/06/17 06:48:48;;;;;;;7.38;2.22;;;;;;;15.34;49.72;101785.09;5116923;28;20051;-69
2022/06/17 06:51:15;;;;;;;9.68;4.15;;;;;;;15.43;49.62;101781.41;5134454;28;20047;-70
2022/06/17 06:53:42;;;;;;;14.48;2.53;;;;;;;15.58;48.93;101781.59;5134622;28;20047;-69
2022/06/17 06:56:08;;;;;;;5.28;2.45;;;;;;;15.83;48.19;101781.63;5134379;28;20130;-69
2022/06/17 06:58:35;;;;;;;7.63;2.40;;;;;;;15.99;47.23;101778.94;5134552;28;20121;-71
2022/06/17 07:01:01;;;;;;;9.13;2.58;;;;;;;16.50;46.21;101779.53;5134691;28;20130;-70
2022/06/17 07:03:29;;;;;;;9.40;2.28;;;;;;;16.83;45.63;101782.13;5134478;28;20048;-70
2022/06/17 07:05:59;;;;;;;5.43;2.35;;;;;;;16.98;45.07;101788.50;5134603;28;20452;-70
2022/06/17 07:08:31;;;;;;;12.73;2.63;;;;;;;17.17;44.33;101783.69;5134111;28;20204;-70
2022/06/17 07:10:59;;;;;;;9.93;2.50;;;;;;;17.39;43.71;101793.72;5134541;28;20130;-70
2022/06/17 07:13:30;;;;;;;9.32;2.67;;;;;;;17.94;42.37;101797.22;5134361;28;20051;-70
2022/06/17 07:15:58;;;;;;;7.25;2.55;;;;;;;18.42;41.62;101798.66;5134311;27;20070;-70
2022/06/17 07:18:29;;;;;;;6.25;2.22;;;;;;;18.70;40.71;101800.72;5136409;27;20566;-70
2022/06/17 07:20:59;;;;;;;6.80;2.33;;;;;;;19.19;39.77;101794.69;5138203;27;20054;-70
2022/06/17 07:23:48;;;;;;;7.97;2.53;;;;;;;19.57;38.93;101800.75;5138011;27;20487;-70
2022/06/17 07:26:21;;;;;;;7.45;2.38;;;;;;;19.89;38.40;101802.13;5117216;28;20131;-70
2022/06/17 07:28:51;;;;;;;6.65;2.30;;;;;;;20.02;38.00;101803.31;5117599;28;20131;-70
2022/06/17 07:31:19;;;;;;;6.73;2.13;;;;;;;20.38;37.04;101805.88;5117350;28;20040;-70
2022/06/17 07:33:45;;;;;;;11.52;2.80;;;;;;;19.98;37.31;101810.19;5117303;28;20535;-70
2022/06/17 07:39:53;;;;;;;4.47;2.03;;;;;;;20.39;37.02;101811.13;5117453;28;20086;-70
2022/06/17 07:41:55;;;;;;;4.88;1.88;;;;;;;21.21;35.35;101812.25;5116980;28;20127;-70
2022/06/17 07:44:22;;;;;;;10.38;2.30;;;;;;;21.15;35.33;101807.63;5117156;28;20094;-70
2022/06/17 07:46:49;;;;;;;9.73;1.98;;;;;;;21.43;34.07;101814.84;5117166;28;20048;-70
2022/06/17 07:49:16;;;;;;;6.10;2.25;;;;;;;20.84;35.33;101810.81;5116925;28;20075;-70
2022/06/17 07:51:42;;;;;;;11.57;1.98;;;;;;;21.24;34.70;101820.03;5117086;28;20089;-70
2022/06/17 07:54:09;;;;;;;8.27;1.92;;;;;;;21.16;34.24;101814.75;5116951;28;20078;-70
2022/06/17 07:56:35;;;;;;;9.00;2.20;;;;;;;21.09;34.71;101816.59;5116975;28;20518;-70
2022/06/17 07:59:02;;;;;;;6.25;1.80;;;;;;;21.85;33.85;101820.00;5117017;28;20047;-70
2022/06/17 08:01:29;;;;;;;11.48;2.33;;;;;;;21.94;33.32;101822.50;5116550;28;20130;-70
2022/06/17 08:03:56;;;;;;;9.40;2.35;;;;;;;22.02;33.11;101820.41;5116753;28;20466;-70
2022/06/17 08:06:23;;;;;;;7.50;1.95;;;;;;;21.71;33.52;101823.72;5117337;28;20058;-70
2022/06/17 08:08:49;;;;;;;13.77;2.03;;;;;;;22.43;32.59;101824.81;5116665;28;20142;-70
2022/06/17 08:11:16;;;;;;;6.03;2.00;;;;;;;22.24;32.53;101818.31;5116708;28;20139;-70
2022/06/17 08:13:42;;;;;;;6.70;2.08;;;;;;;22.75;31.95;101817.63;5116068;28;20044;-70
2022/06/17 08:16:12;;;;;;;9.60;2.25;;;;;;;22.98;32.08;101827.22;5116486;28;20530;-70
2022/06/17 08:18:40;;;;;;;9.52;1.98;;;;;;;23.35;31.10;101822.03;5116609;28;20051;-70
2022/06/17 08:21:07;;;;;;;14.48;2.55;;;;;;;23.45;30.64;101816.91;5115991;28;20044;-70
2022/06/17 08:23:33;;;;;;;8.00;2.20;;;;;;;23.80;30.13;101827.47;5116366;28;20453;-70
2022/06/17 08:26:00;;;;;;;4.55;1.60;;;;;;;23.14;30.50;101823.19;5135438;27;20425;-70
2022/06/17 08:28:28;;;;;;;13.30;2.17;;;;;;;22.67;31.48;101819.72;5136541;27;20082;-70
2022/06/17 08:30:56;;;;;;;6.88;2.08;;;;;;;23.31;29.93;101820.78;5136763;27;20043;-70
2022/06/17 08:33:28;;;;;;;6.35;1.60;;;;;;;23.73;29.35;101822.00;5136894;27;20051;-70
2022/06/17 08:36:15;;;;;;;8.32;1.98;;;;;;;22.96;30.69;101824.69;5136646;27;20057;-70
2022/06/17 08:38:47;;;;;;;7.15;1.80;;;;;;;23.08;30.28;101827.59;5136720;27;20086;-70
2022/06/17 08:41:28;;;;;;;3.38;1.48;;;;;;;23.60;29.16;101828.41;5136021;27;20096;-71
2022/06/17 08:44:07;;;;;;;10.30;1.35;;;;;;;23.59;28.88;101828.63;5137529;27;20086;-71
2022/06/17 08:47:18;;;;;;;10.48;1.88;;;;;;;23.93;28.50;101833.69;5136520;27;20043;-70
2022/06/17 08:50:13;;;;;;;5.05;1.73;;;;;;;23.68;28.78;101821.84;5114787;27;20044;-69
2022/06/17 08:53:09;;;;;;;4.72;1.70;;;;;;;22.62;30.21;101823.13;5136353;27;20078;-69
2022/06/17 08:55:57;;;;;;;6.15;1.38;;;;;;;23.94;28.43;101826.31;5136851;27;20471;-70
2022/06/17 08:58:53;;;;;;;9.90;1.90;;;;;;;24.43;27.51;101822.72;5136431;27;20438;-70
2022/06/17 09:01:57;;;;;;;5.57;1.75;;;;;;;24.62;27.34;101814.53;5135706;27;20086;-70
2022/06/17 09:05:00;;;;;;;5.82;1.83;;;;;;;25.29;26.06;101807.16;5104312;27;20047;-70
2022/06/17 09:07:46;;;;;;;5.43;1.63;;;;;;;25.20;25.99;101814.06;5136574;27;20398;-69
2022/06/17 09:10:33;;;;;;;3.83;1.40;;;;;;;24.02;27.35;101803.25;5135774;27;20089;-71
2022/06/17 09:13:23;;;;;;;7.13;1.60;;;;;;;24.97;25.59;101811.16;5135970;27;20043;-70
2022/06/17 09:15:57;;;;;;;9.20;1.80;;;;;;;25.49;25.38;101808.81;5122617;27;20138;-69
2022/06/17 09:18:33;;;;;;;3.17;1.02;;;;;;;24.92;25.74;101800.84;5135504;27;20084;-69
2022/06/17 09:21:07;;;;;;;6.82;1.08;;;;;;;24.71;25.66;101801.34;5135380;27;20134;-70
2022/06/17 09:23:38;;;;;;;4.00;1.20;;;;;;;24.64;25.82;101795.91;5135532;27;20455;-70
2022/06/17 09:26:15;;;;;;;7.40;1.80;;;;;;;25.36;24.58;101799.66;5135792;27;20055;-70
2022/06/17 09:28:49;;;;;;;6.10;1.30;;;;;;;24.31;26.20;101785.28;5135554;27;20051;-70
2022/06/17 09:31:20;;;;;;;7.30;1.50;;;;;;;24.38;26.14;101792.41;5135543;27;20054;-70
2022/06/17 09:33:55;;;;;;;;;;;;;;;24.79;25.70;101792.81;5135937;27;20456;-70
2022/06/17 09:36:28;;;;;;;4.10;1.15;;;;;;;24.39;26.21;101788.59;5135499;27;20358;-70
2022/06/17 09:39:07;;;;;;;6.13;1.40;;;;;;;25.68;24.32;101779.34;5135542;27;20047;-70
2022/06/17 09:41:52;;;;;;;3.55;1.52;;;;;;;26.60;23.14;101787.06;5134721;27;20130;-70
2022/06/17 09:44:24;;;;;;;6.40;1.63;;;;;;;26.44;22.92;101781.22;5135352;27;20082;-69
2022/06/17 09:47:01;;;;;;;3.33;1.00;;;;;;;26.31;22.90;101789.75;5135194;27;20449;-69
2022/06/17 09:49:41;;;;;;;3.15;0.98;;;;;;;25.99;22.76;101780.97;5135242;27;20403;-69
2022/06/17 09:52:19;;;;;;;3.50;1.08;;;;;;;25.62;23.30;101778.41;5135134;27;20535;-69
2022/06/17 09:55:25;;;;;;;3.67;1.23;;;;;;;26.14;23.19;101772.25;5135496;27;20522;-69
2022/06/17 09:57:52;;;;;;;5.65;1.45;;;;;;;25.45;24.15;101778.22;5084119;27;20043;-69
2022/06/17 10:00:22;;;;;;;9.95;1.23;;;;;;;25.97;23.37;101766.63;5135968;27;20143;-69
2022/06/17 10:03:06;;;;;;;4.47;1.10;;;;;;;26.26;22.78;101768.44;5135196;27;20051;-70
2022/06/17 10:05:59;;;;;;;4.45;1.33;;;;;;;25.95;22.58;101758.59;5134981;27;20055;-70
2022/06/17 10:08:44;;;;;;;8.35;1.20;;;;;;;25.54;23.80;101763.03;5134916;27;20096;-70
2022/06/17 10:11:11;;;;;;;5.18;1.13;;;;;;;25.68;23.77;101768.38;5135013;27;20455;-70
2022/06/17 10:13:55;;;;;;;7.68;1.15;;;;;;;26.07;22.75;101773.22;5134790;27;20430;-70
2022/06/17 10:19:38;;;;;;;3.00;1.45;;;;;;;27.82;21.13;101766.56;5134614;27;20051;-69
2022/06/17 10:22:39;;;;;;;7.57;3.40;;;;;;;27.81;20.22;101757.47;5134762;28;20546;-69
2022/06/17 10:25:23;;;;;;;1.55;0.95;;;;;;;25.76;22.96;101755.13;5134575;28;20502;-69
2022/06/17 10:28:22;;;;;;;7.15;0.93;;;;;;;26.89;21.97;101765.94;5135021;28;20070;-70
2022/06/17 10:30:58;;;;;;;6.32;0.98;;;;;;;26.95;21.87;101762.22;5100153;28;20047;-70
2022/06/17 10:33:28;;;;;;;7.30;1.73;;;;;;;26.70;22.00;101751.50;5135449;28;20051;-70
2022/06/17 10:35:55;;;;;;;6.43;1.48;;;;;;;26.50;22.33;101755.50;5136062;28;20538;-70
2022/06/17 10:38:31;;;;;;;7.20;1.55;;;;;;;26.16;22.71;101765.41;5118299;28;20099;-70
2022/06/17 10:40:58;;;;;;;10.52;1.05;;;;;;;26.16;22.48;101764.59;5134970;28;20047;-69
2022/06/17 10:43:39;;;;;;;6.22;1.02;;;;;;;26.74;22.02;101759.03;5135166;28;20104;-70
2022/06/17 10:46:13;;;;;;;1.73;1.10;;;;;;;24.83;24.11;101744.63;5135234;28;20047;-70
2022/06/17 10:48:43;;;;;;;2.85;0.98;;;;;;;24.90;24.18;101740.72;5135382;28;20048;-71
2022/06/17 10:51:10;;;;;;;7.38;1.08;;;;;;;24.69;24.68;101738.47;5135780;28;20121;-70
2022/06/17 10:53:43;;;;;;;5.32;1.05;;;;;;;24.99;24.38;101732.16;5139939;27;20081;-69
2022/06/17 10:56:17;;;;;;;8.65;1.00;;;;;;;24.34;25.59;101740.97;5139574;27;20078;-69
2022/06/17 10:58:59;;;;;;;5.20;0.80;;;;;;;24.50;24.47;101734.88;5140314;27;20115;-70
2022/06/17 11:01:47;;;;;;;2.22;1.10;;;;;;;24.81;24.74;101736.59;5139652;27;20057;-70
2022/06/17 11:04:29;;;;;;;3.58;1.00;;;;;;;24.83;24.24;101736.38;5139285;27;20046;-70
2022/06/17 11:07:15;;;;;;;4.20;0.90;;;;;;;24.76;24.02;101738.38;5138898;27;20098;-71
2022/06/17 11:09:51;;;;;;;4.13;1.02;;;;;;;24.44;24.45;101733.06;5140072;27;20077;-70
2022/06/17 11:12:22;;;;;;;5.75;1.15;;;;;;;24.50;24.31;101723.91;5139348;27;20039;-70
2022/06/17 11:15:03;;;;;;;3.97;1.00;;;;;;;24.17;25.09;101721.50;5140941;27;20047;-71
2022/06/17 11:17:42;;;;;;;1.92;0.90;;;;;;;23.90;25.55;101712.72;5138671;27;20047;-70
2022/06/17 11:20:15;;;;;;;8.23;1.63;;;;;;;23.76;26.22;101719.38;5138833;27;20104;-70
2022/06/17 11:23:06;;;;;;;9.82;2.85;;;;;;;24.12;25.82;101716.69;5138485;27;20058;-70
2022/06/17 11:25:40;;;;;;;4.57;2.03;;;;;;;23.91;25.66;101709.72;5138265;27;20149;-69
2022/06/17 11:28:31;;;;;;;3.22;1.10;;;;;;;24.47;25.23;101707.91;5138583;27;20107;-69
2022/06/17 11:31:04;;;;;;;4.93;1.30;;;;;;;24.18;25.29;101709.47;5138812;27;20070;-70
2022/06/17 11:33:53;;;;;;;5.43;1.00;;;;;;;24.27;24.49;101697.16;5137599;27;20051;-70
2022/06/17 11:36:35;;;;;;;2.28;1.02;;;;;;;24.27;25.05;101702.63;5127576;27;20414;-70
2022/06/17 11:39:25;;;;;;;3.88;1.30;;;;;;;23.27;26.52;101708.13;5137789;27;20146;-70
2022/06/17 11:41:52;;;;;;;4.03;0.95;;;;;;;22.81;26.69;101706.50;5124831;27;20477;-71
2022/06/17 11:44:20;;;;;;;7.15;0.77;;;;;;;23.10;26.39;101705.06;5137890;27;20083;-70
2022/06/17 11:46:57;;;;;;;3.33;1.30;;;;;;;23.07;26.35;101702.75;5137929;27;20456;-69
2022/06/17 11:49:24;;;;;;;7.85;2.03;;;;;;;23.10;26.71;101704.22;5138148;27;20387;-70
2022/06/17 11:52:06;;;;;;;11.20;2.05;;;;;;;23.18;26.91;101702.06;5138649;27;20081;-70
2022/06/17 11:54:53;;;;;;;6.45;1.10;;;;;;;23.14;26.63;101702.75;5138967;27;20085;-70
2022/06/17 11:57:27;;;;;;;1.80;1.10;;;;;;;22.97;26.18;101702.41;5137665;27;20047;-70
2022/06/17 12:00:00;;;;;;;3.15;1.17;;;;;;;22.90;26.46;101694.22;5137826;27;20047;-70